createdAt,value
2023-05-04T00:00:52.091Z,210.51
2023-05-04T00:01:53.121Z,210.73
2023-05-04T00:02:53.169Z,209.51
2023-05-04T00:03:53.218Z,209.43
2023-05-04T00:04:52.299Z,208.06
2023-05-04T00:05:52.062Z,208.26
2023-05-04T00:06:53.041Z,206.92
2023-05-04T00:07:52.051Z,209.67
2023-05-04T00:08:52.038Z,209.57
2023-05-04T00:09:53.030Z,208.56
2023-05-04T00:10:53.023Z,208.52
2023-05-04T00:11:52.008Z,208.18
2023-05-04T00:12:53.041Z,208.18
2023-05-04T00:13:53.004Z,206.42
2023-05-04T00:14:52.005Z,208.56
2023-05-04T00:15:53.035Z,207.01
2023-05-04T00:16:52.985Z,206.82
2023-05-04T00:17:52.999Z,207.04
2023-05-04T00:18:51.965Z,205.48
2023-05-04T00:19:52.971Z,206.06
2023-05-04T00:20:52.955Z,208.00
2023-05-04T00:21:51.965Z,206.04
2023-05-04T00:22:52.947Z,205.22
2023-05-04T00:23:52.930Z,205.75
2023-05-04T00:24:51.922Z,206.26
2023-05-04T00:25:52.924Z,206.69
2023-05-04T00:26:52.916Z,205.23
2023-05-04T00:27:52.912Z,206.73
2023-05-04T00:28:51.901Z,206.94
2023-05-04T00:29:51.909Z,208.19
2023-05-04T00:30:51.880Z,205.90
2023-05-04T00:31:52.963Z,207.15
2023-05-04T00:32:52.969Z,206.15
2023-05-04T00:33:51.891Z,204.59
2023-05-04T00:34:51.862Z,205.65
2023-05-04T00:35:52.849Z,205.84
2023-05-04T00:36:52.854Z,205.43
2023-05-04T00:37:51.826Z,206.57
2023-05-04T00:38:52.867Z,205.04
2023-05-04T00:39:51.825Z,205.31
2023-05-04T00:40:51.816Z,204.64
2023-05-04T00:41:52.822Z,204.54
2023-05-04T00:42:51.792Z,203.89
2023-05-04T00:43:52.787Z,204.05
2023-05-04T00:44:52.799Z,204.67
2023-05-04T00:45:52.787Z,204.22
2023-05-04T00:46:51.797Z,205.55
2023-05-04T00:47:52.768Z,207.25
2023-05-04T00:48:51.753Z,208.52
2023-05-04T00:49:52.790Z,205.37
2023-05-04T00:50:52.760Z,205.42
2023-05-04T00:51:51.778Z,205.57
2023-05-04T00:52:52.745Z,204.42
2023-05-04T00:53:51.720Z,203.72
2023-05-04T00:54:52.724Z,204.05
2023-05-04T00:55:52.703Z,204.74
2023-05-04T00:56:52.763Z,205.26
2023-05-04T00:57:52.706Z,204.42
2023-05-04T00:58:52.681Z,201.66
2023-05-04T00:59:52.683Z,202.95
2023-05-04T01:00:52.698Z,201.91
2023-05-04T01:01:52.715Z,201.35
2023-05-04T01:02:52.775Z,204.86
2023-05-04T01:03:51.682Z,204.76
2023-05-04T01:04:52.656Z,204.73
2023-05-04T01:05:52.660Z,203.67
2023-05-04T01:06:52.666Z,202.81
2023-05-04T01:07:52.636Z,202.35
2023-05-04T01:08:51.628Z,202.41
2023-05-04T01:09:51.616Z,201.92
2023-05-04T01:10:51.595Z,202.81
2023-05-04T01:11:52.605Z,204.79
2023-05-04T01:12:51.620Z,203.73
2023-05-04T01:13:53.276Z,204.30
2023-05-04T01:14:52.579Z,205.46
2023-05-04T01:15:52.590Z,206.22
2023-05-04T01:16:52.593Z,203.43
2023-05-04T01:17:51.619Z,202.96
2023-05-04T01:18:52.557Z,204.73
2023-05-04T01:19:52.566Z,205.21
2023-05-04T01:20:51.555Z,201.46
2023-05-04T01:21:52.582Z,202.61
2023-05-04T01:22:52.568Z,202.05
2023-05-04T01:23:51.604Z,201.65
2023-05-04T01:24:52.598Z,200.73
2023-05-04T01:25:51.611Z,202.90
2023-05-04T01:26:51.644Z,201.44
2023-05-04T01:27:52.689Z,199.36
2023-05-04T01:28:51.709Z,199.85
2023-05-04T01:29:51.698Z,203.87
2023-05-04T01:30:51.786Z,203.74
2023-05-04T01:31:52.764Z,202.80
2023-05-04T01:32:52.854Z,202.45
2023-05-04T01:33:52.770Z,201.00
2023-05-04T01:34:52.808Z,202.36
2023-05-04T01:35:51.808Z,202.92
2023-05-04T01:36:51.858Z,201.22
2023-05-04T01:37:52.873Z,201.33
2023-05-04T01:38:52.864Z,199.68
2023-05-04T01:39:52.883Z,200.04
2023-05-04T01:40:52.924Z,200.12
2023-05-04T01:41:52.965Z,202.15
2023-05-04T01:42:53.003Z,200.95
2023-05-04T01:43:53.033Z,202.89
2023-05-04T01:44:53.073Z,201.22
2023-05-04T01:45:53.138Z,203.46
2023-05-04T01:46:53.144Z,202.06
2023-05-04T01:47:52.250Z,201.38
2023-05-04T01:48:53.212Z,201.32
2023-05-04T01:49:53.289Z,200.26
2023-05-04T01:50:53.299Z,198.86
2023-05-04T01:51:53.328Z,200.53
2023-05-04T01:52:53.373Z,201.46
2023-05-04T01:53:53.428Z,198.83
2023-05-04T01:54:53.438Z,197.90
2023-05-04T01:55:53.483Z,198.94
2023-05-04T01:56:52.525Z,201.11
2023-05-04T01:57:53.547Z,198.85
2023-05-04T01:58:53.593Z,199.45
2023-05-04T01:59:53.640Z,197.67
2023-05-04T02:00:53.657Z,198.82
2023-05-04T02:01:52.891Z,197.32
2023-05-04T02:02:53.782Z,199.73
2023-05-04T02:03:53.845Z,197.36
2023-05-04T02:04:53.809Z,198.37
2023-05-04T02:05:52.814Z,201.18
2023-05-04T02:06:53.880Z,200.16
2023-05-04T02:07:52.890Z,199.57
2023-05-04T02:08:53.916Z,200.58
2023-05-04T02:09:53.998Z,197.16
2023-05-04T02:10:53.000Z,193.35
2023-05-04T02:11:53.048Z,197.60
2023-05-04T02:12:54.113Z,196.48
2023-05-04T02:13:53.136Z,199.17
2023-05-04T02:14:53.198Z,199.19
2023-05-04T02:15:54.218Z,198.03
2023-05-04T02:16:54.262Z,200.37
2023-05-04T02:17:54.358Z,197.30
2023-05-04T02:18:54.346Z,197.64
2023-05-04T02:19:54.389Z,200.33
2023-05-04T02:20:54.427Z,198.54
2023-05-04T02:21:54.462Z,198.96
2023-05-04T02:22:53.489Z,199.09
2023-05-04T02:23:54.530Z,201.21
2023-05-04T02:24:53.597Z,199.49
2023-05-04T02:25:53.642Z,198.65
2023-05-04T02:26:54.672Z,196.64
2023-05-04T02:27:54.694Z,197.30
2023-05-04T02:28:54.765Z,197.11
2023-05-04T02:29:53.781Z,198.17
2023-05-04T02:30:54.821Z,195.80
2023-05-04T02:31:53.874Z,195.49
2023-05-04T02:32:53.932Z,197.14
2023-05-04T02:33:54.953Z,195.55
2023-05-04T02:34:55.042Z,196.66
2023-05-04T02:35:55.031Z,196.64
2023-05-04T02:36:55.096Z,197.56
2023-05-04T02:37:54.136Z,196.93
2023-05-04T02:38:55.182Z,195.25
2023-05-04T02:39:55.246Z,195.96
2023-05-04T02:40:55.268Z,195.94
2023-05-04T02:41:56.146Z,193.21
2023-05-04T02:42:54.399Z,194.51
2023-05-04T02:43:54.457Z,195.63
2023-05-04T02:44:55.487Z,195.81
2023-05-04T02:45:55.600Z,195.52
2023-05-04T02:46:54.590Z,195.07
2023-05-04T02:47:54.712Z,194.25
2023-05-04T02:48:55.707Z,194.13
2023-05-04T02:49:55.742Z,195.17
2023-05-04T02:50:55.774Z,192.91
2023-05-04T02:51:55.878Z,192.48
2023-05-04T02:52:55.859Z,192.45
2023-05-04T02:53:55.896Z,190.55
2023-05-04T02:54:55.956Z,192.81
2023-05-04T02:55:55.990Z,190.88
2023-05-04T02:56:55.071Z,193.10
2023-05-04T02:57:56.467Z,189.54
2023-05-04T02:58:55.163Z,193.40
2023-05-04T02:59:56.186Z,192.40
2023-05-04T03:00:56.262Z,192.40
2023-05-04T03:01:56.328Z,193.01
2023-05-04T03:02:56.412Z,190.33
2023-05-04T03:03:56.443Z,192.15
2023-05-04T03:04:58.852Z,192.09
2023-05-04T03:05:56.430Z,192.17
2023-05-04T03:06:55.420Z,192.19
2023-05-04T03:07:56.397Z,192.46
2023-05-04T03:08:56.393Z,192.92
2023-05-04T03:09:55.387Z,192.30
2023-05-04T03:10:55.389Z,191.80
2023-05-04T03:11:56.377Z,192.67
2023-05-04T03:12:56.405Z,191.34
2023-05-04T03:13:56.376Z,193.47
2023-05-04T03:14:56.348Z,194.16
2023-05-04T03:15:56.339Z,192.39
2023-05-04T03:16:56.369Z,191.16
2023-05-04T03:17:56.364Z,192.19
2023-05-04T03:18:56.325Z,191.70
2023-05-04T03:19:56.335Z,191.74
2023-05-04T03:20:56.311Z,192.25
2023-05-04T03:21:56.297Z,190.09
2023-05-04T03:22:56.287Z,188.99
2023-05-04T03:23:56.280Z,191.25
2023-05-04T03:24:56.276Z,190.86
2023-05-04T03:25:56.269Z,190.98
2023-05-04T03:26:55.294Z,189.83
2023-05-04T03:27:56.280Z,192.17
2023-05-04T03:28:55.252Z,190.86
2023-05-04T03:29:56.276Z,191.80
2023-05-04T03:30:56.231Z,190.88
2023-05-04T03:31:55.269Z,189.94
2023-05-04T03:32:56.320Z,189.79
2023-05-04T03:33:56.348Z,191.30
2023-05-04T03:34:56.433Z,189.32
2023-05-04T03:35:56.456Z,192.00
2023-05-04T03:36:56.496Z,190.55
2023-05-04T03:37:56.556Z,192.02
2023-05-04T03:38:56.597Z,190.24
2023-05-04T03:39:56.681Z,190.07
2023-05-04T03:40:56.708Z,192.29
2023-05-04T03:41:56.764Z,190.43
2023-05-04T03:42:55.835Z,190.21
2023-05-04T03:43:56.900Z,189.53
2023-05-04T03:44:56.977Z,189.45
2023-05-04T03:45:57.143Z,187.67
2023-05-04T03:46:57.082Z,191.46
2023-05-04T03:47:57.176Z,192.51
2023-05-04T03:48:57.182Z,188.59
2023-05-04T03:49:57.262Z,189.75
2023-05-04T03:50:56.309Z,189.69
2023-05-04T03:51:56.457Z,189.04
2023-05-04T03:52:57.406Z,191.53
2023-05-04T03:53:57.473Z,189.35
2023-05-04T03:54:57.547Z,188.68
2023-05-04T03:55:56.588Z,189.12
2023-05-04T03:56:57.631Z,189.83
2023-05-04T03:57:56.681Z,188.07
2023-05-04T03:58:57.734Z,189.21
2023-05-04T03:59:57.918Z,186.67
2023-05-04T04:00:57.847Z,186.82
2023-05-04T04:01:56.983Z,187.48
2023-05-04T04:02:58.029Z,187.88
2023-05-04T04:03:57.044Z,188.16
2023-05-04T04:04:57.087Z,188.14
2023-05-04T04:05:58.167Z,190.20
2023-05-04T04:06:57.190Z,189.50
2023-05-04T04:07:58.256Z,188.77
2023-05-04T04:08:58.323Z,187.59
2023-05-04T04:09:58.392Z,189.09
2023-05-04T04:10:58.432Z,187.58
2023-05-04T04:11:58.621Z,187.13
2023-05-04T04:12:57.573Z,187.58
2023-05-04T04:13:57.612Z,186.97
2023-05-04T04:14:57.671Z,186.66
2023-05-04T04:15:58.775Z,185.97
2023-05-04T04:16:58.772Z,185.76
2023-05-04T04:17:58.902Z,184.48
2023-05-04T04:18:58.873Z,185.18
2023-05-04T04:19:58.933Z,186.17
2023-05-04T04:20:57.991Z,185.99
2023-05-04T04:21:58.063Z,183.52
2023-05-04T04:22:58.112Z,184.13
2023-05-04T04:23:59.171Z,183.69
2023-05-04T04:24:58.229Z,182.86
2023-05-04T04:25:58.307Z,182.51
2023-05-04T04:26:59.352Z,183.98
2023-05-04T04:27:59.436Z,185.56
2023-05-04T04:28:59.487Z,184.63
2023-05-04T04:29:58.522Z,184.40
2023-05-04T04:30:59.665Z,182.28
2023-05-04T04:31:58.653Z,183.46
2023-05-04T04:32:58.792Z,185.31
2023-05-04T04:33:59.788Z,183.52
2023-05-04T04:34:59.815Z,182.56
2023-05-04T04:35:58.871Z,183.96
2023-05-04T04:36:59.912Z,182.51
2023-05-04T04:38:02.253Z,183.43
2023-05-04T04:38:59.971Z,183.61
2023-05-04T04:39:59.959Z,183.92
2023-05-04T04:40:59.940Z,182.67
2023-05-04T04:41:59.941Z,182.13
2023-05-04T04:42:58.939Z,181.68
2023-05-04T04:43:58.928Z,183.37
2023-05-04T04:44:59.898Z,181.52
2023-05-04T04:45:59.908Z,182.49
2023-05-04T04:46:58.947Z,181.86
2023-05-04T04:47:59.931Z,181.39
2023-05-04T04:48:59.867Z,182.53
2023-05-04T04:49:59.881Z,182.04
2023-05-04T04:50:58.867Z,182.51
2023-05-04T04:51:58.855Z,183.30
2023-05-04T04:52:59.881Z,183.65
2023-05-04T04:53:59.851Z,181.39
2023-05-04T04:54:58.844Z,181.47
2023-05-04T04:55:59.836Z,181.42
2023-05-04T04:56:59.817Z,181.15
2023-05-04T04:57:58.829Z,181.42
2023-05-04T04:58:59.870Z,182.44
2023-05-04T04:59:59.919Z,184.25
2023-05-04T05:01:00.023Z,182.18
2023-05-04T05:02:00.050Z,180.49
2023-05-04T05:03:00.213Z,180.21
2023-05-04T05:03:59.112Z,178.63
2023-05-04T05:04:59.214Z,178.99
2023-05-04T05:06:00.383Z,178.09
2023-05-04T05:06:59.229Z,178.81
2023-05-04T05:08:00.268Z,176.69
2023-05-04T05:09:00.323Z,177.68
2023-05-04T05:09:59.839Z,176.11
2023-05-04T05:10:59.428Z,174.96
2023-05-04T05:12:00.436Z,175.31
2023-05-04T05:12:59.425Z,172.45
2023-05-04T05:13:59.498Z,171.90
2023-05-04T05:15:00.500Z,166.33
2023-05-04T05:16:00.503Z,169.59
2023-05-04T05:16:59.612Z,167.57
2023-05-04T05:17:59.550Z,168.14
2023-05-04T05:19:00.541Z,166.90
2023-05-04T05:20:00.542Z,164.51
2023-05-04T05:21:00.507Z,163.18
2023-05-04T05:22:00.566Z,162.98
2023-05-04T05:22:59.498Z,161.69
2023-05-04T05:24:00.496Z,161.75
2023-05-04T05:24:59.501Z,159.81
2023-05-04T05:26:00.857Z,157.65
2023-05-04T05:26:59.488Z,160.27
2023-05-04T05:28:00.488Z,154.01
2023-05-04T05:29:00.473Z,159.19
2023-05-04T05:30:00.464Z,155.02
2023-05-04T05:30:59.473Z,153.85
2023-05-04T05:32:00.438Z,155.07
2023-05-04T05:33:00.490Z,158.03
2023-05-04T05:33:59.436Z,162.07
2023-05-04T05:35:00.447Z,161.76
2023-05-04T05:36:00.432Z,163.55
2023-05-04T05:37:00.635Z,166.14
2023-05-04T05:38:00.476Z,164.65
2023-05-04T05:39:00.434Z,167.81
2023-05-04T05:39:59.464Z,167.75
2023-05-04T05:41:00.461Z,166.01
2023-05-04T05:42:00.379Z,167.90
2023-05-04T05:43:00.407Z,170.62
2023-05-04T05:43:59.369Z,173.48
2023-05-04T05:45:00.383Z,174.28
2023-05-04T05:46:00.394Z,175.60
2023-05-04T05:47:00.423Z,176.18
2023-05-04T05:48:00.348Z,164.44
2023-05-04T05:49:00.623Z,141.50
2023-05-04T05:49:59.526Z,124.63
2023-05-04T05:51:01.637Z,114.41
2023-05-04T05:52:00.468Z,104.87
2023-05-04T05:52:59.868Z,98.51
2023-05-04T05:54:00.520Z,89.44
2023-05-04T05:55:01.674Z,81.67
2023-05-04T05:55:59.478Z,77.80
2023-05-04T05:57:00.474Z,82.40
2023-05-04T05:57:59.435Z,79.07
2023-05-04T05:59:00.423Z,68.11
2023-05-04T06:00:00.419Z,68.04
2023-05-04T06:01:00.587Z,75.98
2023-05-04T06:02:00.416Z,76.51
2023-05-04T06:03:00.533Z,76.79
2023-05-04T06:04:00.663Z,79.53
2023-05-04T06:05:00.409Z,78.57
2023-05-04T06:06:00.404Z,87.28
2023-05-04T06:07:00.380Z,89.62
2023-05-04T06:07:59.385Z,87.31
2023-05-04T06:08:59.381Z,94.35
2023-05-04T06:10:00.387Z,97.01
2023-05-04T06:11:00.359Z,99.28
2023-05-04T06:12:00.326Z,106.30
2023-05-04T06:12:59.384Z,110.87
2023-05-04T06:13:59.332Z,113.18
2023-05-04T06:15:00.319Z,117.03
2023-05-04T06:15:59.819Z,124.74
2023-05-04T06:17:00.304Z,135.18
2023-05-04T06:17:59.354Z,143.85
2023-05-04T06:19:00.268Z,154.01
2023-05-04T06:19:59.275Z,159.15
2023-05-04T06:21:00.276Z,167.05
2023-05-04T06:22:00.262Z,186.46
2023-05-04T06:22:59.276Z,191.26
2023-05-04T06:23:59.233Z,196.52
2023-05-04T06:25:03.626Z,206.65
2023-05-04T06:26:00.256Z,207.26
2023-05-04T06:27:00.247Z,208.71
2023-05-04T06:28:00.210Z,214.79
2023-05-04T06:29:00.217Z,222.72
2023-05-04T06:30:00.280Z,236.27
2023-05-04T06:30:59.189Z,241.95
2023-05-04T06:32:01.255Z,243.50
2023-05-04T06:32:59.268Z,250.00
2023-05-04T06:34:00.189Z,248.73
2023-05-04T06:34:59.180Z,246.65
2023-05-04T06:36:00.195Z,245.20
2023-05-04T06:37:00.185Z,249.04
2023-05-04T06:38:00.139Z,244.96
2023-05-04T06:39:00.153Z,250.00
2023-05-04T06:40:00.145Z,248.69
2023-05-04T06:41:00.148Z,247.27
2023-05-04T06:41:59.821Z,250.25
2023-05-04T06:42:59.101Z,244.34
2023-05-04T06:44:00.101Z,247.31
2023-05-04T06:45:00.088Z,246.95
2023-05-04T06:45:59.095Z,248.32
2023-05-04T06:46:59.059Z,242.14
2023-05-04T06:48:00.174Z,247.54
2023-05-04T06:48:59.060Z,245.17
2023-05-04T06:50:00.070Z,245.89
2023-05-04T06:51:00.805Z,247.52
2023-05-04T06:51:59.038Z,248.25
2023-05-04T06:52:59.034Z,243.25
2023-05-04T06:53:59.014Z,248.39
2023-05-04T06:54:59.007Z,246.45
2023-05-04T06:55:59.330Z,246.02
2023-05-04T06:57:00.019Z,246.04
2023-05-04T06:58:00.034Z,241.69
2023-05-04T06:58:59.990Z,245.03
2023-05-04T06:59:59.977Z,247.42
2023-05-04T07:01:00.100Z,242.85
2023-05-04T07:01:58.982Z,243.82
2023-05-04T07:02:59.009Z,243.67
2023-05-04T07:03:59.019Z,244.72
2023-05-04T07:04:59.936Z,247.03
2023-05-04T07:05:59.934Z,247.83
2023-05-04T07:06:59.954Z,244.57
2023-05-04T07:07:59.921Z,246.70
2023-05-04T07:08:59.924Z,247.84
2023-05-04T07:09:59.936Z,246.96
2023-05-04T07:10:59.945Z,244.05
2023-05-04T07:11:59.894Z,244.37
2023-05-04T07:12:59.938Z,246.06
2023-05-04T07:13:58.926Z,244.14
2023-05-04T07:14:59.871Z,240.92
2023-05-04T07:15:59.908Z,241.16
2023-05-04T07:16:58.866Z,242.97
2023-05-04T07:17:58.892Z,241.23
2023-05-04T07:18:59.828Z,240.57
2023-05-04T07:19:59.828Z,238.87
2023-05-04T07:21:11.274Z,235.08
2023-05-04T07:21:59.824Z,235.34
2023-05-04T07:22:59.814Z,235.55
2023-05-04T07:23:59.818Z,237.06
2023-05-04T07:24:59.798Z,233.51
2023-05-04T07:25:59.797Z,234.52
2023-05-04T07:26:58.811Z,237.78
2023-05-04T07:27:58.785Z,229.22
2023-05-04T07:28:59.767Z,231.96
2023-05-04T07:29:58.886Z,230.00
2023-05-04T07:30:58.758Z,228.58
2023-05-04T07:31:58.769Z,229.80
2023-05-04T07:32:59.765Z,225.67
2023-05-04T07:33:58.751Z,226.25
2023-05-04T07:34:58.729Z,225.32
2023-05-04T07:35:59.730Z,221.48
2023-05-04T07:36:58.720Z,218.81
2023-05-04T07:37:58.704Z,222.18
2023-05-04T07:38:59.708Z,220.41
2023-05-04T07:39:59.708Z,217.10
2023-05-04T07:40:59.691Z,216.70
2023-05-04T07:41:58.684Z,216.48
2023-05-04T07:42:58.679Z,216.99
2023-05-04T07:43:59.670Z,211.68
2023-05-04T07:44:58.668Z,212.59
2023-05-04T07:45:58.765Z,211.29
2023-05-04T07:46:58.666Z,210.37
2023-05-04T07:47:59.661Z,209.47
2023-05-04T07:48:58.630Z,204.44
2023-05-04T07:49:59.619Z,201.52
2023-05-04T07:50:59.617Z,198.53
2023-05-04T07:51:58.801Z,199.55
2023-05-04T07:52:59.616Z,198.35
2023-05-04T07:53:59.608Z,195.97
2023-05-04T07:54:59.617Z,195.86
2023-05-04T07:55:58.588Z,194.10
2023-05-04T07:56:59.569Z,194.35
2023-05-04T07:57:58.570Z,195.01
2023-05-04T07:58:58.573Z,195.91
2023-05-04T07:59:59.552Z,194.41
2023-05-04T08:00:58.548Z,193.03
2023-05-04T08:01:58.807Z,194.93
2023-05-04T08:02:59.547Z,193.12
2023-05-04T08:03:58.525Z,192.21
2023-05-04T08:04:59.519Z,193.06
2023-05-04T08:05:58.514Z,189.38
2023-05-04T08:06:58.516Z,190.77
2023-05-04T08:07:59.529Z,190.37
2023-05-04T08:08:59.531Z,191.43
2023-05-04T08:09:59.492Z,191.04
2023-05-04T08:11:11.634Z,187.76
2023-05-04T08:11:59.462Z,187.97
2023-05-04T08:12:58.536Z,188.37
2023-05-04T08:13:58.452Z,188.19
2023-05-04T08:14:59.450Z,188.23
2023-05-04T08:15:59.430Z,187.59
2023-05-04T08:16:58.423Z,184.94
2023-05-04T08:17:59.509Z,185.35
2023-05-04T08:18:59.402Z,184.44
2023-05-04T08:19:58.416Z,183.36
2023-05-04T08:20:58.412Z,183.92
2023-05-04T08:21:59.388Z,183.04
2023-05-04T08:22:58.407Z,181.39
2023-05-04T08:23:58.380Z,180.69
2023-05-04T08:24:58.369Z,179.95
2023-05-04T08:25:58.445Z,178.14
2023-05-04T08:27:07.214Z,176.70
2023-05-04T08:27:59.346Z,176.90
2023-05-04T08:28:58.347Z,177.63
2023-05-04T08:29:59.380Z,177.85
2023-05-04T08:30:59.352Z,177.16
2023-05-04T08:31:59.418Z,176.59
2023-05-04T08:32:58.425Z,175.19
2023-05-04T08:33:59.327Z,176.28
2023-05-04T08:34:59.333Z,174.78
2023-05-04T08:35:59.292Z,173.23
2023-05-04T08:36:59.303Z,171.68
2023-05-04T08:37:59.289Z,173.57
2023-05-04T08:38:59.269Z,174.05
2023-05-04T08:39:58.288Z,163.97
2023-05-04T08:40:59.262Z,147.30
2023-05-04T08:41:59.351Z,152.55
2023-05-04T08:42:58.258Z,162.16
2023-05-04T08:43:58.236Z,136.86
2023-05-04T08:44:59.265Z,142.48
2023-05-04T08:45:59.315Z,139.59
2023-05-04T08:46:58.266Z,135.81
2023-05-04T08:47:59.238Z,118.50
2023-05-04T08:49:05.240Z,118.97
2023-05-04T08:49:59.212Z,119.43
2023-05-04T08:50:59.199Z,120.08
2023-05-04T08:51:59.230Z,119.84
2023-05-04T08:52:58.192Z,116.51
2023-05-04T08:53:58.185Z,108.87
2023-05-04T08:54:58.170Z,105.74
2023-05-04T08:55:59.190Z,81.75
2023-05-04T08:56:59.343Z,59.37
2023-05-04T08:57:59.158Z,38.33
2023-05-04T08:58:59.142Z,41.00
2023-05-04T08:59:58.162Z,60.16
2023-05-04T09:00:58.202Z,54.91
2023-05-04T09:01:59.220Z,52.90
2023-05-04T09:02:58.191Z,45.81
2023-05-04T09:03:59.214Z,36.90
2023-05-04T09:04:59.215Z,37.22
2023-05-04T09:05:58.117Z,40.56
2023-05-04T09:06:59.125Z,38.25
2023-05-04T09:07:59.109Z,31.83
2023-05-04T09:08:59.103Z,38.31
2023-05-04T09:09:58.088Z,35.81
2023-05-04T09:10:59.074Z,37.99
2023-05-04T09:11:59.181Z,34.91
2023-05-04T09:12:58.166Z,29.12
2023-05-04T09:13:59.037Z,30.46
2023-05-04T09:14:59.048Z,29.46
2023-05-04T09:15:58.897Z,26.38
2023-05-04T09:16:59.079Z,27.47
2023-05-04T09:17:59.072Z,31.79
2023-05-04T09:18:59.024Z,25.00
2023-05-04T09:19:59.015Z,25.00
2023-05-04T09:20:59.029Z,30.51
2023-05-04T09:21:58.990Z,25.99
2023-05-04T09:22:58.996Z,25.23
2023-05-04T09:23:59.029Z,30.56
2023-05-04T09:24:58.995Z,26.79
2023-05-04T09:25:57.962Z,27.89
2023-05-04T09:26:58.981Z,29.66
2023-05-04T09:27:57.983Z,28.52
2023-05-04T09:28:58.951Z,25.70
2023-05-04T09:29:57.952Z,34.31
2023-05-04T09:30:57.980Z,28.31
2023-05-04T09:31:57.938Z,26.53
2023-05-04T09:32:59.026Z,28.41
2023-05-04T09:33:57.954Z,26.14
2023-05-04T09:34:58.956Z,28.42
2023-05-04T09:35:58.985Z,32.72
2023-05-04T09:36:59.056Z,25.00
2023-05-04T09:37:58.078Z,26.34
2023-05-04T09:38:59.103Z,35.78
2023-05-04T09:39:59.173Z,36.87
2023-05-04T09:40:59.196Z,35.03
2023-05-04T09:41:59.227Z,32.23
2023-05-04T09:42:58.223Z,34.17
2023-05-04T09:43:59.243Z,27.81
2023-05-04T09:44:58.263Z,25.18
2023-05-04T09:45:58.299Z,32.41
2023-05-04T09:46:58.363Z,41.85
2023-05-04T09:47:58.327Z,40.63
2023-05-04T09:48:59.388Z,34.45
2023-05-04T09:49:58.422Z,39.08
2023-05-04T09:50:59.472Z,26.04
2023-05-04T09:51:58.878Z,26.42
2023-05-04T09:52:58.637Z,25.00
2023-05-04T09:53:58.594Z,24.93
2023-05-04T09:54:58.636Z,29.46
2023-05-04T09:56:00.041Z,27.48
2023-05-04T09:56:59.665Z,25.00
2023-05-04T09:57:59.653Z,30.26
2023-05-04T09:58:59.667Z,30.33
2023-05-04T09:59:58.633Z,34.77
2023-05-04T10:00:58.629Z,33.13
2023-05-04T10:02:02.493Z,31.45
2023-05-04T10:02:59.646Z,31.90
2023-05-04T10:03:59.636Z,33.84
2023-05-04T10:04:59.666Z,37.48
2023-05-04T10:05:58.825Z,41.92
2023-05-04T10:06:59.594Z,50.42
2023-05-04T10:07:59.579Z,51.30
2023-05-04T10:08:58.596Z,48.31
2023-05-04T10:09:58.566Z,51.10
2023-05-04T10:10:59.624Z,57.61
2023-05-04T10:12:00.362Z,55.20
2023-05-04T10:12:58.625Z,57.10
2023-05-04T10:13:58.575Z,61.66
2023-05-04T10:14:58.604Z,63.79
2023-05-04T10:15:59.702Z,63.32
2023-05-04T10:16:58.670Z,64.08
2023-05-04T10:17:58.712Z,65.94
2023-05-04T10:18:59.726Z,63.04
2023-05-04T10:19:59.772Z,73.50
2023-05-04T10:20:59.794Z,70.21
2023-05-04T10:21:59.846Z,70.79
2023-05-04T10:22:58.841Z,73.25
2023-05-04T10:23:58.848Z,73.05
2023-05-04T10:24:59.916Z,68.56
2023-05-04T10:25:59.918Z,76.07
2023-05-04T10:26:59.987Z,76.57
2023-05-04T10:27:59.008Z,74.12
2023-05-04T10:28:59.028Z,77.00
2023-05-04T10:29:59.077Z,83.09
2023-05-04T10:31:00.132Z,81.09
2023-05-04T10:32:00.283Z,80.92
2023-05-04T10:33:00.200Z,82.25
2023-05-04T10:34:00.234Z,82.18
2023-05-04T10:34:59.269Z,86.44
2023-05-04T10:36:00.312Z,81.38
2023-05-04T10:36:59.353Z,80.97
2023-05-04T10:37:59.369Z,83.11
2023-05-04T10:39:00.375Z,86.78
2023-05-04T10:40:00.408Z,82.97
2023-05-04T10:40:59.489Z,82.24
2023-05-04T10:42:00.474Z,85.25
2023-05-04T10:42:59.910Z,87.71
2023-05-04T10:43:59.605Z,79.75
2023-05-04T10:45:00.556Z,66.89
2023-05-04T10:46:00.608Z,61.72
2023-05-04T10:47:00.641Z,38.23
2023-05-04T10:47:59.915Z,20.09
2023-05-04T10:49:00.716Z,5.53
2023-05-04T10:50:00.752Z,23.04
2023-05-04T10:51:00.817Z,24.94
2023-05-04T10:51:59.857Z,31.19
2023-05-04T10:53:00.964Z,32.73
2023-05-04T10:54:01.028Z,41.35
2023-05-04T10:55:01.045Z,58.78
2023-05-04T10:56:01.054Z,56.49
2023-05-04T10:57:01.125Z,63.09
2023-05-04T10:58:01.145Z,73.34
2023-05-04T10:59:00.159Z,80.41
2023-05-04T11:00:01.178Z,82.61
2023-05-04T11:01:01.199Z,90.86
2023-05-04T11:02:00.190Z,98.10
2023-05-04T11:03:01.455Z,101.65
2023-05-04T11:04:00.282Z,106.96
2023-05-04T11:05:00.307Z,107.83
2023-05-04T11:06:00.344Z,112.82
2023-05-04T11:07:00.401Z,114.44
2023-05-04T11:08:01.450Z,115.46
2023-05-04T11:09:01.534Z,120.21
2023-05-04T11:10:01.683Z,121.51
2023-05-04T11:11:00.623Z,124.32
2023-05-04T11:12:00.700Z,127.51
2023-05-04T11:13:01.411Z,127.35
2023-05-04T11:14:00.749Z,128.70
2023-05-04T11:15:01.762Z,129.82
2023-05-04T11:16:01.847Z,129.50
2023-05-04T11:18:00.837Z,126.93
2023-05-04T11:19:00.930Z,137.82
2023-05-04T11:20:00.927Z,139.73
2023-05-04T11:21:00.963Z,137.12
2023-05-04T11:22:01.103Z,133.23
2023-05-04T11:23:01.078Z,132.98
2023-05-04T11:24:01.025Z,133.85
2023-05-04T11:25:01.102Z,132.62
2023-05-04T11:26:01.114Z,129.81
2023-05-04T11:27:02.091Z,125.95
2023-05-04T11:28:01.111Z,126.07
2023-05-04T11:29:01.186Z,127.03
2023-05-04T11:30:01.330Z,123.33
2023-05-04T11:31:02.459Z,119.24
2023-05-04T11:32:01.421Z,120.61
2023-05-04T11:33:01.316Z,120.59
2023-05-04T11:34:01.195Z,121.23
2023-05-04T11:35:01.252Z,125.77
2023-05-04T11:36:02.278Z,122.00
2023-05-04T11:37:01.660Z,120.29
2023-05-04T11:38:02.451Z,123.08
2023-05-04T11:39:01.371Z,127.74
2023-05-04T11:40:01.373Z,129.06
2023-05-04T11:41:01.449Z,129.86
2023-05-04T11:42:01.393Z,133.88
2023-05-04T11:43:02.503Z,135.51
2023-05-04T11:44:01.446Z,139.66
2023-05-04T11:45:02.641Z,138.60
2023-05-04T11:46:02.574Z,140.04
2023-05-04T11:47:01.627Z,141.50
2023-05-04T11:48:01.657Z,142.94
2023-05-04T11:49:01.671Z,143.48
2023-05-04T11:50:01.702Z,147.01
2023-05-04T11:51:02.805Z,147.44
2023-05-04T11:52:01.834Z,147.57
2023-05-04T11:53:01.799Z,148.91
2023-05-04T11:54:01.865Z,149.16
2023-05-04T11:55:01.936Z,151.94
2023-05-04T11:56:02.985Z,151.86
2023-05-04T11:57:03.043Z,152.67
2023-05-04T11:58:02.095Z,154.01
2023-05-04T11:59:02.061Z,153.66
2023-05-04T12:00:02.124Z,155.94
2023-05-04T12:01:02.253Z,156.17
2023-05-04T12:02:02.182Z,157.28
2023-05-04T12:03:02.380Z,158.59
2023-05-04T12:04:03.458Z,157.91
2023-05-04T12:05:02.386Z,158.64
2023-05-04T12:06:02.489Z,159.85
2023-05-04T12:07:02.454Z,160.19
2023-05-04T12:08:03.593Z,160.04
2023-05-04T12:09:03.557Z,160.00
2023-05-04T12:10:02.628Z,161.18
2023-05-04T12:11:02.644Z,160.92
2023-05-04T12:12:03.620Z,160.35
2023-05-04T12:13:02.913Z,161.33
2023-05-04T12:14:02.715Z,162.55
2023-05-04T12:15:02.808Z,162.28
2023-05-04T12:16:02.873Z,162.68
2023-05-04T12:17:02.897Z,162.97
2023-05-04T12:18:04.011Z,162.04
2023-05-04T12:19:04.021Z,150.34
2023-05-04T12:20:03.011Z,139.19
2023-05-04T12:21:05.171Z,123.57
2023-05-04T12:22:03.079Z,119.82
2023-05-04T12:23:03.086Z,114.84
2023-05-04T12:24:03.101Z,111.40
2023-05-04T12:25:03.236Z,114.66
2023-05-04T12:26:04.156Z,108.06
2023-05-04T12:27:04.176Z,107.07
2023-05-04T12:28:04.267Z,110.14
2023-05-04T12:29:04.244Z,114.25
2023-05-04T12:30:03.333Z,112.71
2023-05-04T12:31:04.356Z,111.54
2023-05-04T12:32:03.429Z,112.25
2023-05-04T12:33:03.531Z,112.80
2023-05-04T12:34:03.485Z,113.28
2023-05-04T12:35:03.430Z,116.97